Latest Weather Observations for Gudgenby

IDN60901

Issued at 6:41 pm EDT Tuesday 10 December 2019 (issued every 10 minutes, with the page automatically refreshed every 10 minutes)

About weather observations | Map of Canberra area stations | Latest observations for Canberra area | Other Formats
Station Details ID: 250072 Name: GUDGENBY (PCS) Lat: -35.73 Lon: 148.98 Height: 1035.0 m

Portable automatic weather stations (PAWS) are operated by other organisations, such as Fire and Emergency Services, and are included here by agreement. Portable stations may be deployed to a location for a short period and their location may be subject to change without notice. Wind observations from these stations are provided from heights of either three (3) or ten (10) metres above ground level (AGL).

Data from the previous 72 hours. | See also: Recent months for locations in Aust Capital Territory
Date/Time
EDT
Temp
°C
App
Temp
°C
Dew
Point
°C
Rel
Hum
%
Delta-T
°C
Wind Press
QNH
hPa
Press
MSL
hPa
Rain since
9am
mm
Dir  Spd
km/h
Gust
km/h
Spd
kts
Gust
kts
10/06:30pm 30.1 26.6 3.7 18 14.1 WSW 11 19 6 10 - - 0.0
10/06:20pm 30.0 24.8 3.6 18 14.1 W 20 22 11 12 - - 0.0
10/06:10pm 29.9 23.1 3.2 18 14.1 WNW 28 35 15 19 - - 0.0
10/06:00pm 30.9 25.5 2.7 16 14.9 W 20 35 11 19 - - 0.0
10/05:50pm 30.8 25.5 3.1 17 14.7 WSW 20 24 11 13 - - 0.0
10/05:40pm 30.5 25.8 2.9 17 14.6 W 17 24 9 13 - - 0.0
10/05:30pm 29.3 22.8 2.9 18 13.9 W 26 32 14 17 - - 0.0
10/05:20pm 30.1 23.5 2.2 16 14.5 WNW 26 32 14 17 - - 0.0
10/05:10pm 30.9 25.1 2.4 16 15.0 W 22 33 12 18 - - 0.0
10/05:00pm 31.4 23.4 1.4 14 15.5 WNW 33 41 18 22 - - 0.0
10/04:50pm 31.6 25.6 0.9 14 15.8 W 22 37 12 20 - - 0.0
10/04:40pm 30.5 25.5 1.4 15 15.0 WSW 17 20 9 11 - - 0.0
10/04:30pm 31.7 25.8 1.8 15 15.6 WSW 22 28 12 15 - - 0.0
10/04:20pm 32.5 21.9 1.0 13 16.3 NW 46 52 25 28 - - 0.0
10/04:10pm 32.3 23.7 0.1 12 16.4 NW 35 43 19 23 - - 0.0
10/04:00pm 32.1 24.9 0.7 13 16.1 WSW 28 32 15 17 - - 0.0
10/03:50pm 33.2 25.9 0.2 12 16.9 W 28 32 15 17 - - 0.0
10/03:40pm 32.9 23.9 0.3 12 16.7 NW 37 48 20 26 - - 0.0
10/03:30pm 32.5 26.0 0.1 12 16.5 WNW 24 30 13 16 - - 0.0
10/03:20pm 33.0 26.4 -0.5 11 17.0 W 24 33 13 18 - - 0.0
10/03:10pm 32.8 27.1 0.4 12 16.7 W 20 33 11 18 - - 0.0
10/03:00pm 32.9 26.4 0.2 12 16.8 W 24 43 13 23 - - 0.0
10/02:50pm 33.0 26.2 1.1 13 16.6 WNW 26 35 14 19 - - 0.0
10/02:40pm 32.6 23.8 -1.1 11 16.9 NW 35 44 19 24 - - 0.0
10/02:30pm 33.1 22.8 -1.1 11 17.2 NW 43 59 23 32 - - 0.0
10/02:20pm 32.5 23.3 -1.6 11 16.9 NW 37 54 20 29 - - 0.0
10/02:10pm 33.3 24.0 -1.9 10 17.5 WNW 37 46 20 25 - - 0.0
10/02:00pm 33.5 24.8 -3.2 9 17.9 WNW 33 48 18 26 - - 0.0
10/01:50pm 33.5 25.8 -2.7 9 17.8 WNW 28 43 15 23 - - 0.0
10/01:40pm 33.1 24.4 -3.2 9 17.6 NW 33 44 18 24 - - 0.0
10/01:30pm 32.9 25.0 -4.6 9 17.8 W 28 44 15 24 - - 0.0
10/01:20pm 33.1 25.3 -3.8 9 17.7 WNW 28 52 15 28 - - 0.0
10/01:10pm 32.5 24.7 -4.0 9 17.4 W 28 43 15 23 - - 0.0
10/01:00pm 33.0 24.4 -4.6 8 17.8 W 32 48 17 26 - - 0.0
10/12:50pm 33.9 27.7 -4.6 8 18.4 W 19 28 10 15 - - 0.0
10/12:40pm 33.2 24.8 -5.5 8 18.1 WNW 30 48 16 26 - - 0.0
10/12:30pm 33.2 23.3 -4.2 9 17.9 NW 39 46 21 25 - - 0.0
10/12:20pm 33.7 24.9 -4.6 8 18.3 NW 33 54 18 29 - - 0.0
10/12:10pm 32.9 24.3 -4.0 9 17.7 NW 32 37 17 20 - - 0.0
10/12:00pm 32.8 24.2 -4.5 9 17.7 NW 32 41 17 22 - - 0.0
10/11:50am 32.1 23.2 -4.8 9 17.3 NW 33 48 18 26 - - 0.0
10/11:40am 32.2 25.1 -4.5 9 17.3 NW 24 28 13 15 - - 0.0
10/11:30am 32.6 24.4 -3.9 9 17.5 NW 30 43 16 23 - - 0.0
10/11:20am 32.3 22.0 -4.0 9 17.3 NNW 41 50 22 27 - - 0.0
10/11:10am 32.0 23.3 -3.4 10 17.0 NW 33 41 18 22 - - 0.0
10/11:00am 31.7 23.0 -3.2 10 16.8 NW 33 46 18 25 - - 0.0
10/10:50am 31.6 23.5 -2.9 10 16.7 NW 30 37 16 20 - - 0.0
10/10:40am 31.1 23.1 -2.3 11 16.2 NW 30 46 16 25 - - 0.0
10/10:30am 31.0 22.4 -2.9 11 16.3 NW 33 44 18 24 - - 0.0
10/10:20am 30.7 22.2 -2.1 12 16.0 NW 33 43 18 23 - - 0.0
10/10:10am 30.6 20.5 -2.4 11 16.0 NW 41 44 22 24 - - 0.0
10/10:00am 30.4 20.4 -1.3 13 15.6 NW 41 50 22 27 - - 0.0
10/09:50am 30.4 20.8 -1.4 12 15.6 NW 39 43 21 23 - - 0.0
10/09:40am 29.8 19.8 -1.6 13 15.3 NW 41 44 22 24 - - 0.0
10/09:30am 29.9 20.3 -1.3 13 15.3 NW 39 46 21 25 - - 0.0
10/09:20am 29.5 20.8 -0.7 14 14.9 NW 35 41 19 22 - - 0.0
10/09:10am 29.2 20.5 -0.5 14 14.7 NW 35 39 19 21 - - 0.0
10/09:00am 29.0 20.9 -0.4 15 14.6 NW 32 39 17 21 - - 0.0
10/08:50am 26.6 21.9 1.1 19 12.8 NNW 15 26 8 14 - - 0.0
10/08:40am 24.3 21.8 3.7 26 10.6 NNW 6 9 3 5 - - 0.0
10/08:30am 22.4 20.8 4.3 30 9.3 ESE 2 4 1 2 - - 0.0
10/08:20am 20.6 18.3 4.9 35 8.1 SE 6 7 3 4 - - 0.0
10/08:10am 20.3 18.4 4.9 36 7.9 SE 4 4 2 2 - - 0.0
10/08:00am 19.3 17.6 5.7 41 7.1 ESE 4 6 2 3 - - 0.0
10/07:50am 18.3 16.9 5.3 42 6.7 NW 2 2 1 1 - - 0.0
10/07:40am 17.1 15.7 5.5 46 5.9 N 2 2 1 1 - - 0.0
10/07:30am 16.2 14.8 5.6 49 5.4 ESE 2 2 1 1 - - 0.0
10/07:20am 15.3 13.8 5.1 50 5.1 NNW 2 2 1 1 - - 0.0
10/07:10am 13.4 11.8 4.6 55 4.3 W 2 4 1 2 - - 0.0
10/07:00am 11.8 10.1 4.2 59 3.6 N 2 4 1 2 - - 0.0
10/06:50am 11.3 9.6 4.2 61 3.4 S 2 4 1 2 - - 0.0
10/06:40am 11.6 10.0 4.4 61 3.5 SSE 2 4 1 2 - - 0.0
10/06:30am 11.5 9.7 3.7 58 3.7 NW 2 4 1 2 - - 0.0
10/06:20am 11.1 9.4 3.8 61 3.4 W 2 2 1 1 - - 0.0
10/06:10am 11.1 9.4 4.0 61 3.4 W 2 4 1 2 - - 0.0
10/06:00am 11.1 9.4 4.2 62 3.3 WNW 2 4 1 2 - - 0.0
10/05:50am 11.0 8.9 4.1 62 3.3 W 4 4 2 2 - - 0.0
10/05:40am 10.9 8.8 3.9 62 3.3 SSW 4 6 2 3 - - 0.0
10/05:30am 10.8 8.3 3.5 60 3.4 S 6 7 3 4 - - 0.0
10/05:20am 11.0 8.6 4.2 63 3.2 S 6 7 3 4 - - 0.0
10/05:10am 11.4 9.7 4.0 60 3.5 S 2 4 1 2 - - 0.0
10/05:00am 11.2 9.5 4.1 61 3.4 S 2 4 1 2 - - 0.0
10/04:50am 11.1 9.1 4.2 62 3.3 SSE 4 4 2 2 - - 0.0
10/04:40am 11.3 9.7 4.3 62 3.3 SSE 2 6 1 3 - - 0.0
10/04:30am 11.5 10.0 4.8 63 3.2 NNE 2 4 1 2 - - 0.0
10/04:20am 12.0 10.3 4.1 58 3.8 ESE 2 4 1 2 - - 0.0
10/04:10am 11.4 9.8 4.3 61 3.4 S 2 4 1 2 - - 0.0
10/04:00am 11.6 10.0 4.5 61 3.4 E 2 4 1 2 - - 0.0
10/03:50am 11.9 10.3 4.6 61 3.5 NW 2 4 1 2 - - 0.0
10/03:40am 11.9 10.3 4.5 60 3.6 NNW 2 2 1 1 - - 0.0
10/03:30am 12.3 10.7 4.4 58 3.8 SSE 2 2 1 1 - - 0.0
10/03:20am 12.3 10.7 4.5 59 3.8 W 2 4 1 2 - - 0.0
10/03:10am 12.5 10.9 4.7 59 3.8 SW 2 4 1 2 - - 0.0
10/03:00am 12.7 10.7 4.6 58 3.9 S 4 4 2 2 - - 0.0
10/02:50am 12.7 10.7 4.4 57 4.0 SSE 4 4 2 2 - - 0.0
10/02:40am 12.5 10.1 4.3 57 4.0 SSE 6 7 3 4 - - 0.0
10/02:30am 13.0 11.1 4.8 57 4.0 SSE 4 6 2 3 - - 0.0
10/02:20am 13.6 11.6 4.6 54 4.4 SSE 4 4 2 2 - - 0.0
10/02:10am 13.7 11.7 4.6 54 4.5 SSE 4 6 2 3 - - 0.0
10/02:00am 13.8 11.5 4.7 54 4.5 SE 6 7 3 4 - - 0.0
10/01:50am 13.7 12.1 4.7 54 4.4 SSW 2 6 1 3 - - 0.0
10/01:40am 13.9 12.0 4.7 54 4.5 WSW 4 4 2 2 - - 0.0
10/01:30am 14.2 11.9 4.8 53 4.6 SSE 6 6 3 3 - - 0.0
10/01:20am 14.3 12.0 5.0 53 4.6 SE 6 7 3 4 - - 0.0
10/01:10am 14.7 12.8 4.7 51 4.9 E 4 6 2 3 - - 0.0
10/01:00am 14.9 13.4 4.8 51 5.0 N 2 4 1 2 - - 0.0
10/12:50am 15.8 14.3 4.8 48 5.5 N 2 4 1 2 - - 0.0
10/12:40am 16.0 14.0 4.5 46 5.7 NW 4 6 2 3 - - 0.0
10/12:30am 15.7 14.1 4.5 47 5.5 WSW 2 2 1 1 - - 0.0
10/12:20am 15.7 14.2 4.9 48 5.4 WSW 2 4 1 2 - - 0.0
10/12:10am 16.1 14.2 4.8 47 5.6 W 4 6 2 3 - - 0.0
10/12:00am 16.2 13.9 4.8 46 5.7 S 6 9 3 5 - - 0.0
 
Date/Time
EDT
Temp
°C
App
Temp
°C
Dew
Point
°C
Rel
Hum
%
Delta-T
°C
Wind Press
QNH
hPa
Press
MSL
hPa
Rain since
9am
mm
Dir  Spd
km/h
Gust
km/h
Spd
kts
Gust
kts
09/11:50pm 16.5 14.0 4.8 46 5.9 SSE 7 9 4 5 - - 0.0
09/11:40pm 16.7 14.2 4.7 45 6.0 SE 7 9 4 5 - - 0.0
09/11:30pm 17.0 14.7 4.8 44 6.1 SE 6 7 3 4 - - 0.0
09/11:20pm 17.5 15.6 4.8 43 6.4 SE 4 7 2 4 - - 0.0
09/11:10pm 18.1 16.1 4.5 40 6.8 SSE 4 4 2 2 - - 0.0
09/11:00pm 17.7 16.1 4.6 42 6.6 ENE 2 4 1 2 - - 0.0
09/10:50pm 18.1 16.3 5.2 42 6.6 ESE 4 6 2 3 - - 0.0
09/10:40pm 19.1 17.5 4.6 38 7.4 ENE 2 4 1 2 - - 0.0
09/10:30pm 19.6 17.7 4.7 37 7.6 SE 4 6 2 3 - - 0.0
09/10:20pm 19.9 17.5 4.4 36 7.9 SSE 6 7 3 4 - - 0.0
09/10:10pm 20.6 18.2 4.2 34 8.3 S 6 9 3 5 - - 0.0
09/10:00pm 20.0 17.4 4.2 35 8.0 S 7 9 4 5 - - 0.0
09/09:50pm 19.7 17.3 4.4 36 7.8 S 6 9 3 5 - - 0.0
09/09:40pm 19.6 17.2 5.2 38 7.4 SE 7 9 4 5 - - 0.0
09/09:30pm 21.9 19.9 4.4 32 9.0 WNW 4 11 2 6 - - 0.0
09/09:20pm 23.2 19.3 3.5 27 10.1 W 13 13 7 7 - - 0.0
09/09:10pm 23.8 19.9 3.5 26 10.4 W 13 15 7 8 - - 0.0
09/09:00pm 24.0 20.1 3.4 26 10.6 W 13 15 7 8 - - 0.0
09/08:50pm 24.1 19.9 3.6 26 10.6 W 15 17 8 9 - - 0.0
09/08:40pm 24.0 19.8 3.6 26 10.5 W 15 17 8 9 - - 0.0
09/08:30pm 24.3 20.5 3.8 26 10.6 W 13 15 7 8 - - 0.0
09/08:20pm 24.7 20.5 3.6 25 10.9 W 15 17 8 9 - - 0.0
09/08:10pm 24.7 20.4 3.4 25 11.0 W 15 17 8 9 - - 0.0
09/08:00pm 25.2 21.4 3.7 25 11.2 W 13 15 7 8 - - 0.0
09/07:50pm 25.5 21.2 3.5 24 11.4 W 15 17 8 9 - - 0.0
09/07:40pm 26.0 22.1 3.4 23 11.7 WNW 13 17 7 9 - - 0.0
09/07:30pm 26.7 22.8 3.2 22 12.2 W 13 17 7 9 - - 0.0
09/07:20pm 27.2 23.6 3.0 21 12.6 W 11 15 6 8 - - 0.0
09/07:10pm 27.6 24.4 3.0 20 12.8 W 9 13 5 7 - - 0.0
09/07:00pm 27.5 23.9 2.8 20 12.8 W 11 17 6 9 - - 0.0
09/06:50pm 27.5 23.2 3.1 20 12.7 W 15 17 8 9 - - 0.0
09/06:40pm 27.6 22.9 2.9 20 12.8 W 17 20 9 11 - - 0.0
09/06:30pm 27.6 23.3 3.0 20 12.8 W 15 22 8 12 - - 0.0
09/06:20pm 27.6 22.9 2.9 20 12.8 WNW 17 22 9 12 - - 0.0
09/06:10pm 27.8 22.5 2.9 20 13.0 W 20 26 11 14 - - 0.0
09/06:00pm 28.1 23.0 2.8 19 13.2 W 19 22 10 12 - - 0.0
09/05:50pm 28.8 24.4 2.6 18 13.6 WSW 15 22 8 12 - - 0.0
09/05:40pm 28.8 24.1 2.9 19 13.6 WSW 17 20 9 11 - - 0.0
09/05:30pm 29.2 22.6 2.3 18 14.0 W 26 30 14 16 - - 0.0
09/05:20pm 29.7 23.8 1.8 16 14.4 W 22 28 12 15 - - 0.0
09/05:10pm 29.8 24.3 1.6 16 14.5 WSW 20 24 11 13 - - 0.0
09/05:00pm 30.0 25.2 2.5 17 14.4 SW 17 19 9 10 - - 0.0
09/04:50pm 30.1 24.1 3.5 18 14.2 W 24 33 13 18 - - 0.0
09/04:40pm 30.0 24.7 1.8 16 14.6 WSW 19 22 10 12 - - 0.0
09/04:30pm 30.1 24.8 2.1 16 14.6 W 19 24 10 13 - - 0.0
09/04:20pm 30.0 24.8 3.7 18 14.0 WSW 20 24 11 13 - - 0.0
09/04:10pm 29.9 24.5 1.1 15 14.7 WNW 19 24 10 13 - - 0.0
09/04:00pm 30.5 26.1 0.2 14 15.3 WNW 13 26 7 14 - - 0.0
09/03:50pm 30.3 25.0 -0.3 14 15.3 W 17 24 9 13 - - 0.0
09/03:40pm 30.7 25.1 0.2 14 15.4 W 19 24 10 13 - - 0.0
09/03:30pm 30.7 24.2 -2.8 11 16.1 SW 22 28 12 15 - - 0.0
09/03:20pm 30.7 24.8 -2.0 12 15.9 SW 19 28 10 15 - - 0.0
09/03:10pm 30.2 23.6 -0.4 14 15.3 SW 24 30 13 16 - - 0.0
09/03:00pm 30.4 24.0 -1.6 12 15.7 SW 22 26 12 14 - - 0.0
09/02:50pm 30.3 23.3 -3.9 10 16.1 SW 24 37 13 20 - - 0.0
09/02:40pm 30.6 24.0 -3.4 11 16.2 WSW 22 30 12 16 - - 0.0
09/02:30pm 30.5 24.9 1.1 15 15.1 SW 20 26 11 14 - - 0.0
09/02:20pm 30.8 25.5 3.2 17 14.7 W 20 24 11 13 - - 0.0
09/02:10pm 30.7 25.2 3.9 18 14.4 WNW 22 26 12 14 - - 0.0
09/02:00pm 30.2 23.7 2.9 17 14.4 WNW 26 37 14 20 - - 0.0
09/01:50pm 31.1 24.1 2.2 16 15.1 WNW 28 37 15 20 - - 0.0
09/01:40pm 31.2 24.7 2.5 16 15.1 WNW 26 39 14 21 - - 0.0
09/01:30pm 30.6 23.8 0.8 14 15.2 WNW 26 30 14 16 - - 0.0
09/01:20pm 30.2 23.7 0.6 15 15.0 WNW 24 33 13 18 - - 0.0
09/01:10pm 29.7 22.5 0.5 15 14.7 WNW 28 35 15 19 - - 0.0
09/01:00pm 30.1 22.6 1.5 16 14.7 NW 30 35 16 19 - - 0.0
09/12:50pm 30.1 24.5 1.5 16 14.7 WNW 20 33 11 18 - - 0.0
09/12:40pm 29.8 23.8 1.3 16 14.6 WNW 22 39 12 21 - - 0.0
09/12:30pm 29.1 22.9 4.5 21 13.2 NW 26 32 14 17 - - 0.0
09/12:20pm 29.2 23.2 3.6 19 13.6 NNW 24 28 13 15 - - 0.0
09/12:10pm 28.9 21.4 3.6 20 13.4 NW 32 37 17 20 - - 0.0
09/12:00pm 28.7 21.2 3.2 19 13.4 NW 32 39 17 21 - - 0.0
09/11:50am 27.6 21.9 4.8 23 12.2 N 24 28 13 15 - - 0.0
09/11:40am 26.8 22.5 7.7 29 10.7 N 20 28 11 15 - - 0.0
09/11:30am 26.5 21.9 8.3 31 10.3 NNE 22 28 12 15 - - 0.0
09/11:20am 25.6 21.1 8.4 33 9.7 NE 22 30 12 16 - - 0.0
09/11:10am 25.0 21.5 11.0 41 8.2 NE 20 24 11 13 - - 0.0
09/11:00am 25.0 20.6 8.9 36 9.1 NE 22 26 12 14 - - 0.0
09/10:50am 23.9 20.1 11.2 44 7.5 ENE 22 24 12 13 - - 0.0
09/10:40am 23.3 19.6 11.4 47 7.0 ENE 22 26 12 14 - - 0.0
09/10:30am 22.4 19.0 11.2 49 6.5 ENE 20 26 11 14 - - 0.0
09/10:20am 22.4 19.1 11.5 50 6.4 NE 20 24 11 13 - - 0.0
09/10:10am 21.8 19.0 11.2 51 6.2 NE 17 20 9 11 - - 0.0
09/10:00am 20.9 17.7 11.2 54 5.6 NE 19 20 10 11 - - 0.0
09/09:50am 20.8 18.4 11.5 55 5.4 NE 15 20 8 11 - - 0.0
09/09:40am 20.4 18.4 11.5 56 5.2 NE 13 20 7 11 - - 0.0
09/09:30am 20.2 18.5 11.1 56 5.2 NNE 11 15 6 8 - - 0.0
09/09:20am 19.6 17.9 11.2 58 4.8 NE 11 13 6 7 - - 0.0
09/09:10am 19.2 18.3 11.2 60 4.6 NNE 7 11 4 6 - - 0.0
09/09:00am 18.8 17.8 11.1 61 4.4 NE 7 11 4 6 - - 0.0
09/08:50am 18.3 17.5 11.0 62 4.2 NNE 6 7 3 4 - - 0.0
09/08:40am 17.8 17.4 11.2 65 3.8 N 4 6 2 3 - - 0.0
09/08:30am 17.2 16.9 11.3 68 3.4 SSE 4 6 2 3 - - 0.0
09/08:20am 16.5 16.5 11.2 71 3.0 NNE 2 4 1 2 - - 0.0
09/08:10am 15.9 15.8 10.9 72 2.8 WNW 2 4 1 2 - - 0.0
09/08:00am 14.7 14.2 10.8 77 2.2 N 4 6 2 3 - - 0.0
09/07:50am 14.0 13.5 10.7 80 1.8 W 4 6 2 3 - - 0.0
09/07:40am 13.4 13.2 10.5 82 1.6 WSW 2 4 1 2 - - 0.0
09/07:30am 12.9 12.0 10.5 85 1.3 SW 6 6 3 3 - - 0.0
09/07:20am 12.7 11.8 10.5 86 1.2 SW 6 7 3 4 - - 0.0
09/07:10am 12.9 12.3 10.5 85 1.3 WSW 4 6 2 3 - - 0.0
09/07:00am 12.5 11.9 10.5 88 1.1 NNW 4 6 2 3 - - 0.0
09/06:50am 12.5 12.3 10.5 88 1.1 WSW 2 4 1 2 - - 0.0
09/06:40am 12.3 11.7 10.5 89 1.0 WSW 4 6 2 3 - - 0.0
09/06:30am 12.2 12.0 10.4 89 1.0 W 2 4 1 2 - - 0.0
09/06:20am 12.0 11.4 10.3 89 0.9 WNW 4 4 2 2 - - 0.0
09/06:10am 11.6 10.9 10.1 90 0.8 NW 4 4 2 2 - - 0.0
09/06:00am 11.3 10.6 9.9 91 0.8 N 4 4 2 2 - - 0.0
09/05:50am 11.6 10.9 9.9 89 0.9 W 4 6 2 3 - - 0.0
09/05:40am 11.6 11.4 10.3 92 0.7 S 2 4 1 2 - - 0.0
09/05:30am 11.4 11.1 10.0 91 0.8 ESE 2 4 1 2 - - 0.0
09/05:20am 11.5 11.2 10.1 91 0.8 ESE 2 4 1 2 - - 0.0
09/05:10am 11.7 11.1 10.4 92 0.7 NW 4 4 2 2 - - 0.0
09/05:00am 11.6 11.4 10.4 92 0.7 NW 2 4 1 2 - - 0.0
09/04:50am 11.4 11.2 10.3 93 0.6 NW 2 4 1 2 - - 0.0
09/04:40am 11.4 11.1 10.1 92 0.7 SSW 2 4 1 2 - - 0.0
09/04:30am 11.2 11.0 10.4 95 0.4 NW 2 4 1 2 - - 0.0
09/04:20am 11.0 10.8 10.3 95 0.4 NW 2 2 1 1 - - 0.0
09/04:10am 11.2 10.5 10.1 93 0.6 NNW 4 6 2 3 - - 0.0
09/04:00am 11.7 11.2 10.7 94 0.5 SSW 4 6 2 3 - - 0.0
09/03:50am 11.6 10.6 10.4 92 0.7 SSW 6 7 3 4 - - 0.0
09/03:40am 11.7 10.8 10.5 92 0.7 SSW 6 7 3 4 - - 0.0
09/03:30am 11.7 10.8 10.5 92 0.7 SSW 6 6 3 3 - - 0.0
09/03:20am 11.8 11.2 10.5 92 0.7 S 4 6 2 3 - - 0.0
09/03:10am 12.0 11.8 10.6 91 0.8 S 2 4 1 2 - - 0.0
09/03:00am 11.8 11.3 10.6 92 0.7 S 4 6 2 3 - - 0.0
09/02:50am 11.9 11.3 10.5 91 0.8 S 4 6 2 3 - - 0.0
09/02:40am 11.9 11.4 10.7 92 0.7 S 4 4 2 2 - - 0.0
09/02:30am 11.8 11.6 10.6 92 0.7 SE 2 6 1 3 - - 0.0
09/02:20am 11.8 11.2 10.5 92 0.7 SSE 4 6 2 3 - - 0.0
09/02:10am 11.8 11.3 10.7 93 0.6 S 4 6 2 3 - - 0.0
09/02:00am 12.0 11.5 10.6 91 0.8 SSE 4 6 2 3 - - 0.0
09/01:50am 12.5 12.4 10.9 90 0.9 N 2 2 1 1 - - 0.0
09/01:40am 13.0 12.2 11.2 89 1.0 N 6 9 3 5 - - 0.0
09/01:30am 13.4 12.1 11.2 86 1.2 NNE 9 11 5 6 - - 0.0
09/01:20am 13.4 11.7 11.2 86 1.2 NNE 11 13 6 7 - - 0.0
09/01:10am 13.7 12.0 11.3 85 1.3 NNE 11 13 6 7 - - 0.0
09/01:00am 13.8 12.1 11.3 85 1.4 NNE 11 15 6 8 - - 0.0
09/12:50am 14.0 11.9 11.3 84 1.5 NNE 13 15 7 8 - - 0.0
09/12:40am 14.0 12.4 11.4 84 1.5 NNE 11 15 6 8 - - 0.0
09/12:30am 14.0 12.4 11.4 84 1.5 NNE 11 15 6 8 - - 0.0
09/12:20am 14.0 12.4 11.4 84 1.5 NNE 11 13 6 7 - - 0.0
09/12:10am 14.1 11.7 11.4 84 1.5 N 15 17 8 9 - - 0.0
09/12:00am 14.1 11.3 11.4 84 1.5 N 17 22 9 12 - - 0.0
 
Date/Time
EDT
Temp
°C
App
Temp
°C
Dew
Point
°C
Rel
Hum
%
Delta-T
°C
Wind Press
QNH
hPa
Press
MSL
hPa
Rain since
9am
mm
Dir  Spd
km/h
Gust
km/h
Spd
kts
Gust
kts
08/11:50pm 14.1 10.7 11.4 84 1.5 N 20 24 11 13 - - 0.0
08/11:40pm 13.9 10.2 11.4 85 1.4 N 22 26 12 14 - - 0.0
08/11:30pm 14.0 10.6 11.4 84 1.5 N 20 24 11 13 - - 0.0
08/11:20pm 13.9 10.5 11.2 84 1.5 N 20 26 11 14 - - 0.0
08/11:10pm 13.9 11.4 11.1 83 1.6 N 15 20 8 11 - - 0.0
08/11:00pm 13.9 11.4 11.1 83 1.6 N 15 20 8 11 - - 0.0
08/10:50pm 14.2 12.1 11.0 81 1.8 NNE 13 17 7 9 - - 0.0
08/10:40pm 14.2 11.7 11.0 81 1.8 NNE 15 15 8 8 - - 0.0
08/10:30pm 14.3 11.8 11.0 80 1.8 NNE 15 17 8 9 - - 0.0
08/10:20pm 14.6 12.5 11.1 79 2.0 NNE 13 15 7 8 - - 0.0
08/10:10pm 14.8 12.6 10.9 77 2.2 N 13 15 7 8 - - 0.0
08/10:00pm 14.9 13.5 10.8 76 2.3 NNW 9 11 5 6 - - 0.0
08/09:50pm 15.3 13.5 11.0 75 2.4 NNW 11 15 6 8 - - 0.0
08/09:40pm 15.5 13.0 11.0 74 2.5 NNW 15 19 8 10 - - 0.0
08/09:30pm 15.7 12.8 11.0 73 2.6 NNW 17 24 9 13 - - 0.0
08/09:20pm 16.1 13.6 11.0 72 2.9 NNW 15 19 8 10 - - 0.0
08/09:10pm 16.5 12.2 10.9 69 3.2 N 24 26 13 14 - - 0.0
08/09:00pm 16.9 11.9 10.9 67 3.4 N 28 32 15 17 - - 0.0
08/08:50pm 17.2 12.2 10.8 66 3.6 N 28 33 15 18 - - 0.0
08/08:40pm 17.6 13.7 10.7 64 3.9 NNE 22 28 12 15 - - 0.0
08/08:30pm 18.2 13.9 10.7 61 4.2 N 24 32 13 17 - - 0.0
08/08:20pm 18.7 14.4 10.7 59 4.5 N 24 32 13 17 - - 0.0
08/08:10pm 19.0 15.6 10.6 58 4.8 N 19 20 10 11 - - 0.0
08/08:00pm 19.5 16.1 10.6 56 5.1 N 19 22 10 12 - - 0.0
08/07:50pm 19.8 16.2 10.5 55 5.3 N 20 24 11 13 - - 0.0
08/07:40pm 20.2 16.2 10.4 53 5.6 N 22 28 12 15 - - 0.0
08/07:30pm 20.6 16.2 10.3 51 5.9 N 24 30 13 16 - - 0.0
08/07:20pm 21.0 16.2 10.3 50 6.1 N 26 33 14 18 - - 0.0
08/07:10pm 21.3 17.3 10.3 49 6.3 N 22 28 12 15 - - 0.0
08/07:00pm 21.7 17.3 10.3 48 6.5 N 24 30 13 16 - - 0.0
08/06:50pm 22.1 16.9 10.1 46 6.9 N 28 33 15 18 - - 0.0
08/06:40pm 22.3 17.1 10.1 46 7.0 N 28 33 15 18 - - 0.0
08/06:30pm 22.6 17.3 9.8 44 7.3 N 28 32 15 17 - - 0.0
08/06:20pm 22.9 17.2 9.8 43 7.5 N 30 33 16 18 - - 0.0
08/06:10pm 23.5 17.7 9.3 40 8.1 NNE 30 35 16 19 - - 0.0
08/06:00pm 23.8 18.0 9.5 40 8.2 NNE 30 37 16 20 - - 0.0
08/05:50pm 25.5 19.6 7.3 31 10.1 N 28 35 15 19 - - 0.0
08/05:40pm 25.8 18.7 5.6 27 10.9 N 32 39 17 21 - - 0.0
08/05:30pm 25.9 19.6 5.8 27 10.9 N 28 33 15 18 - - 0.0
08/05:20pm 25.7 19.4 5.9 28 10.7 N 28 35 15 19 - - 0.0
08/05:10pm 26.0 20.1 5.7 27 11.0 N 26 30 14 16 - - 0.0
08/05:00pm 26.0 19.8 6.0 27 10.9 N 28 32 15 17 - - 0.0
08/04:50pm 25.9 20.0 6.0 28 10.8 N 26 32 14 17 - - 0.0
08/04:40pm 25.8 21.1 5.9 28 10.8 N 20 28 11 15 - - 0.0
08/04:30pm 25.8 21.2 5.6 27 10.9 N 19 22 10 12 - - 0.0
08/04:20pm 25.9 20.8 6.2 28 10.7 N 22 28 12 15 - - 0.0
08/04:10pm 25.8 20.7 6.1 28 10.7 N 22 32 12 17 - - 0.0
08/04:00pm 26.0 21.8 5.9 27 10.9 N 17 28 9 15 - - 0.0
08/03:50pm 25.5 20.4 6.0 28 10.6 NNE 22 24 12 13 - - 0.0
08/03:40pm 25.6 21.2 6.5 29 10.4 N 19 32 10 17 - - 0.0
08/03:30pm 25.7 21.4 6.9 30 10.4 N 19 24 10 13 - - 0.0
08/03:20pm 25.8 21.2 6.4 29 10.6 N 20 28 11 15 - - 0.0
08/03:10pm 25.1 19.5 7.0 31 10.0 N 26 33 14 18 - - 0.0
08/03:00pm 25.3 21.0 6.8 30 10.1 N 19 26 10 14 - - 0.0
08/02:50pm 25.3 21.4 7.0 31 10.1 NNE 17 22 9 12 - - 0.0
08/02:40pm 25.0 20.1 7.0 31 9.9 N 22 30 12 16 - - 0.0
08/02:30pm 24.5 19.3 7.1 32 9.6 N 24 30 13 16 - - 0.0
08/02:20pm 24.4 20.0 7.3 33 9.4 NNE 20 26 11 14 - - 0.0
08/02:10pm 24.3 20.1 7.4 34 9.3 NE 19 22 10 12 - - 0.0
08/02:00pm 24.7 20.4 7.0 32 9.7 N 19 22 10 12 - - 0.0
08/01:50pm 23.7 19.8 7.2 34 9.0 N 17 22 9 12 - - 0.0
08/01:40pm 23.7 19.3 7.3 35 9.0 N 20 24 11 13 - - 0.0
08/01:30pm 23.7 20.2 7.1 34 9.1 N 15 20 8 11 - - 0.0
08/01:20pm 23.7 19.5 7.6 35 8.9 N 19 28 10 15 - - 0.0
08/01:10pm 23.6 18.4 7.4 35 8.9 N 24 33 13 18 - - 0.0
08/01:00pm 23.3 18.9 7.2 35 8.8 N 20 28 11 15 - - 0.0
08/12:50pm 23.4 19.2 7.4 35 8.8 NNW 19 30 10 16 - - 0.0
08/12:40pm 23.2 18.9 6.8 34 8.9 N 19 22 10 12 - - 0.0
08/12:30pm 23.1 18.9 7.5 36 8.6 NNE 19 22 10 12 - - 0.0
08/12:20pm 22.5 19.0 7.3 37 8.3 N 15 19 8 10 - - 0.0
08/12:10pm 22.5 18.6 7.2 37 8.3 N 17 22 9 12 - - 0.0
08/12:00pm 22.0 18.6 7.5 39 7.9 NNE 15 20 8 11 - - 0.0
08/11:50am 21.9 18.1 7.6 39 7.8 N 17 22 9 12 - - 0.0
08/11:40am 21.8 17.6 7.5 39 7.8 N 19 24 10 13 - - 0.0
08/11:30am 21.1 17.3 7.4 41 7.4 NE 17 22 9 12 - - 0.0
08/11:20am 21.2 17.1 7.8 42 7.3 N 19 22 10 12 - - 0.0
08/11:10am 21.0 18.4 7.9 43 7.2 N 11 17 6 9 - - 0.0
08/11:00am 21.2 18.2 7.8 42 7.3 NNE 13 19 7 10 - - 0.0
08/10:50am 20.2 16.9 8.2 46 6.6 NE 15 17 8 9 - - 0.0
08/10:40am 19.8 16.5 7.9 46 6.5 NE 15 19 8 10 - - 0.0
08/10:30am 19.5 16.2 8.2 48 6.2 ENE 15 19 8 10 - - 0.0
08/10:20am 19.2 15.6 8.5 50 5.9 NNE 17 22 9 12 - - 0.0
08/10:10am 18.6 15.4 8.3 51 5.6 NE 15 19 8 10 - - 0.0
08/10:00am 18.7 16.2 8.3 50 5.7 NE 11 17 6 9 - - 0.0
08/09:50am 18.4 15.4 7.9 50 5.7 NE 13 15 7 8 - - 0.0
08/09:40am 18.2 15.3 8.1 51 5.5 NE 13 17 7 9 - - 0.0
08/09:30am 17.6 15.5 8.3 54 5.0 N 9 13 5 7 - - 0.0
08/09:20am 17.3 14.8 8.4 56 4.8 NE 11 17 6 9 - - 0.0
08/09:10am 17.0 15.4 8.8 58 4.5 NNE 7 17 4 9 - - 0.0
08/09:00am 16.7 15.7 8.8 59 4.3 NE 4 7 2 4 - - 0.0
08/08:50am 16.2 14.8 8.7 61 4.0 NNE 6 7 3 4 - - 0.0
08/08:40am 16.0 15.0 8.7 62 3.9 E 4 6 2 3 - - 0.0
08/08:30am 14.8 13.6 8.0 64 3.6 ESE 4 6 2 3 - - 0.0
08/08:20am 13.3 11.5 7.1 66 3.2 ESE 6 7 3 4 - - 0.0
08/08:10am 12.6 10.7 6.9 68 2.9 SE 6 7 3 4 - - 0.0
08/08:00am 12.4 10.9 7.0 69 2.8 SE 4 6 2 3 - - 0.0
08/07:50am 12.3 11.2 6.9 69 2.7 NNE 2 2 1 1 - - 0.0
08/07:40am 11.3 10.1 6.6 73 2.4 NNE 2 4 1 2 - - 0.0
08/07:30am 10.1 8.8 6.2 77 1.9 SSE 2 4 1 2 - - 0.0
08/07:20am 9.2 7.9 5.9 80 1.6 SE 2 4 1 2 - - 0.0
08/07:10am 8.6 7.2 5.7 82 1.4 SSE 2 4 1 2 - - 0.0
08/07:00am 7.4 6.0 5.3 86 1.0 SSW 2 2 1 1 - - 0.0
08/06:50am 7.1 5.6 5.2 88 0.9 SSE 2 4 1 2 - - 0.0
08/06:40am 7.0 5.1 5.0 87 0.9 SE 4 4 2 2 - - 0.0
08/06:30am 7.3 5.7 4.7 83 1.2 SSE 2 4 1 2 - - 0.0
08/06:20am 7.1 5.6 5.0 86 1.0 S 2 2 1 1 - - 0.0
08/06:10am 6.9 5.4 4.9 87 0.9 SSW 2 2 1 1 - - 0.0
08/06:00am 6.7 5.1 4.6 86 1.0 NW 2 2 1 1 - - 0.0
08/05:50am 6.5 4.9 4.7 88 0.8 SSE 2 4 1 2 - - 0.0
08/05:40am 6.3 4.3 4.4 88 0.9 SSE 4 6 2 3 - - 0.0
08/05:30am 6.3 4.3 4.4 88 0.9 SSE 4 4 2 2 - - 0.0
08/05:20am 6.9 5.3 4.5 85 1.1 ESE 2 2 1 1 - - 0.0
08/05:10am 6.7 4.7 4.2 84 1.1 NW 4 6 2 3 - - 0.0
08/05:00am 6.6 4.6 4.5 86 1.0 NW 4 6 2 3 - - 0.0
08/04:50am 6.7 4.4 4.6 86 1.0 S 6 6 3 3 - - 0.0
08/04:40am 6.9 5.3 4.5 85 1.1 SSW 2 4 1 2 - - 0.0
08/04:30am 7.3 5.4 4.8 84 1.2 SSE 4 4 2 2 - - 0.0
08/04:20am 7.4 5.5 4.9 84 1.2 SE 4 6 2 3 - - 0.0
08/04:10am 7.8 5.9 4.9 82 1.4 S 4 6 2 3 - - 0.0
08/04:00am 8.0 5.7 4.9 81 1.5 SSE 6 7 3 4 - - 0.0
08/03:50am 8.1 6.2 4.8 80 1.6 SSW 4 6 2 3 - - 0.0
08/03:40am 8.0 5.6 4.5 78 1.6 SW 6 7 3 4 - - 0.0
08/03:30am 8.3 5.8 4.6 77 1.7 S 7 7 4 4 - - 0.0
08/03:20am 8.3 5.7 4.4 76 1.8 SSE 7 7 4 4 - - 0.0
08/03:10am 8.3 5.8 4.5 77 1.8 S 7 7 4 4 - - 0.0
08/03:00am 9.0 6.5 4.5 73 2.1 S 7 7 4 4 - - 0.0
08/02:50am 9.1 6.7 4.5 73 2.2 S 6 7 3 4 - - 0.0
08/02:40am 9.6 7.8 5.2 74 2.1 SE 4 6 2 3 - - 0.0
08/02:30am 10.0 8.2 5.4 73 2.2 S 4 4 2 2 - - 0.0
08/02:20am 10.2 8.4 5.3 71 2.4 SW 4 4 2 2 - - 0.0
08/02:10am 10.2 8.8 5.4 72 2.3 SW 2 4 1 2 - - 0.0
08/02:00am 10.2 8.4 5.4 72 2.3 SSW 4 4 2 2 - - 0.0
08/01:50am 10.3 8.8 5.2 70 2.5 WSW 2 4 1 2 - - 0.0
08/01:40am 10.5 9.0 5.0 69 2.7 NNW 2 4 1 2 - - 0.0
08/01:30am 11.0 8.6 5.3 68 2.8 SSW 7 9 4 5 - - 0.0
08/01:20am 10.8 8.4 5.4 69 2.6 S 7 11 4 6 - - 0.0
08/01:10am 10.9 8.5 5.4 69 2.7 SSE 7 9 4 5 - - 0.0
08/01:00am 11.0 8.3 5.5 69 2.7 SSE 9 11 5 6 - - 0.0
08/12:50am 11.2 9.0 5.5 68 2.8 SSE 6 7 3 4 - - 0.0
08/12:40am 11.2 8.9 5.5 68 2.8 SSE 7 9 4 5 - - 0.0
08/12:30am 11.5 8.1 5.9 68 2.8 SSE 13 17 7 9 - - 0.0
08/12:20am 11.7 8.3 5.7 66 3.0 S 13 17 7 9 - - 0.0
08/12:10am 12.1 8.3 6.0 66 3.0 SSE 15 17 8 9 - - 0.0
08/12:00am 13.0 9.3 6.1 63 3.5 S 15 17 8 9 - - 0.0
 
Date/Time
EDT
Temp
°C
App
Temp
°C
Dew
Point
°C
Rel
Hum
%
Delta-T
°C
Wind Press
QNH
hPa
Press
MSL
hPa
Rain since
9am
mm
Dir  Spd
km/h
Gust
km/h
Spd
kts
Gust
kts
07/11:50pm 13.3 10.0 6.2 62 3.6 S 13 15 7 8 - - 0.0
07/11:40pm 13.5 9.4 6.0 60 3.8 S 17 19 9 10 - - 0.0
07/11:30pm 13.8 9.3 6.0 59 3.9 S 19 19 10 10 - - 0.0
07/11:20pm 14.2 9.9 5.1 54 4.5 S 17 19 9 10 - - 0.0
07/11:10pm 14.2 10.0 3.9 50 5.0 S 15 17 8 9 - - 0.0
07/11:00pm 14.2 10.2 3.0 47 5.3 S 13 19 7 10 - - 0.0
07/10:50pm 14.4 11.1 2.3 44 5.7 SE 9 13 5 7 - - 0.0
07/10:40pm 14.5 11.2 0.0 37 6.5 SSE 7 9 4 5 - - 0.0
07/10:30pm 14.9 11.8 0.1 36 6.6 SSE 6 7 3 4 - - 0.0
07/10:20pm 15.2 12.0 -0.2 35 6.9 SSE 6 6 3 3 - - 0.0
07/10:10pm 15.5 12.2 0.1 35 7.0 SSE 7 11 4 6 - - 0.0
07/10:00pm 16.1 12.9 -0.4 32 7.4 S 6 7 3 4 - - 0.0
07/09:50pm 15.9 12.7 -0.6 32 7.4 S 6 9 3 5 - - 0.0
07/09:40pm 16.6 12.5 -0.3 31 7.6 SW 11 13 6 7 - - 0.0
07/09:30pm 16.9 12.4 -0.5 30 7.9 SW 13 15 7 8 - - 0.0
07/09:20pm 17.4 12.9 -0.5 29 8.1 SW 13 17 7 9 - - 0.0
07/09:10pm 17.4 13.2 -0.7 29 8.2 SW 11 13 6 7 - - 0.0
07/09:00pm 17.4 14.0 -0.6 29 8.1 WSW 7 11 4 6 - - 0.0
07/08:50pm 17.6 13.4 -0.7 29 8.3 WSW 11 11 6 6 - - 0.0
07/08:40pm 18.1 13.9 -0.6 28 8.5 WSW 11 15 6 8 - - 0.0
07/08:30pm 18.4 13.1 -0.7 27 8.7 WSW 17 19 9 10 - - 0.0
07/08:20pm 18.6 12.9 -0.6 27 8.8 WSW 19 22 10 12 - - 0.0
07/08:10pm 18.8 13.9 -0.8 26 8.9 WSW 15 19 8 10 - - 0.0
07/08:00pm 19.2 13.8 -1.4 25 9.3 WSW 17 20 9 11 - - 0.0
07/07:50pm 19.4 14.0 -1.6 24 9.5 WSW 17 20 9 11 - - 0.0
07/07:40pm 19.7 14.3 -1.6 23 9.6 WSW 17 19 9 10 - - 0.0
07/07:30pm 20.5 15.5 -1.2 23 9.9 SSW 15 19 8 10 - - 0.0
07/07:20pm 21.1 16.0 -1.9 21 10.5 SSW 15 17 8 9 - - 0.0
07/07:10pm 21.4 15.9 -1.8 21 10.6 SW 17 24 9 13 - - 0.0
07/07:00pm 21.7 16.2 -2.2 20 10.9 SW 17 22 9 12 - - 0.0
07/06:50pm 21.9 16.0 -2.4 19 11.0 SW 19 28 10 15 - - 0.0

Latest Capital City Observations: Canberra | Sydney | Melbourne | Brisbane | Adelaide | Perth | Hobart | Darwin

Other formats

Comma delimited format used in spreadsheet applications
http://www.bom.gov.au/fwo/IDN60903/IDN60903.99765.axf

JavaScript Object Notation format (JSON) in row-major order
http://www.bom.gov.au/fwo/IDN60903/IDN60903.99765.json

Data quality

Most of these data are generated automatically and are frequently updated. Quality checks on data are not normally performed. It is possible for incorrect values to appear. Refer to information at About Latest Weather Observations and please check the disclaimer before using these data.